createdAt,value
2023-01-29T00:01:10.812Z,101059.75
2023-01-29T00:03:43.214Z,101062.23
2023-01-29T00:06:16.147Z,101065.39
2023-01-29T00:08:48.471Z,101066.08
2023-01-29T00:11:21.913Z,101068.85
2023-01-29T00:13:54.663Z,101069.92
2023-01-29T00:16:27.014Z,101069.95
2023-01-29T00:18:59.400Z,101072.48
2023-01-29T00:21:32.305Z,101068.25
2023-01-29T00:24:04.870Z,101069.05
2023-01-29T00:26:39.042Z,101070.61
2023-01-29T00:29:11.744Z,101072.84
2023-01-29T00:31:47.468Z,101077.78
2023-01-29T00:34:20.326Z,101081.45
2023-01-29T00:36:52.626Z,101084.52
2023-01-29T00:39:33.675Z,101085.48
2023-01-29T00:42:29.027Z,101088.20
2023-01-29T00:45:01.257Z,101084.01
2023-01-29T00:47:34.649Z,101083.90
2023-01-29T00:50:08.915Z,101078.98
2023-01-29T00:52:42.202Z,101081.64
2023-01-29T00:55:14.588Z,101084.28
2023-01-29T00:57:46.925Z,101082.27
2023-01-29T01:00:20.679Z,101091.96
2023-01-29T01:03:08.111Z,101091.73
2023-01-29T01:05:42.891Z,101097.16
2023-01-29T01:08:32.475Z,101096.38
2023-01-29T01:11:07.750Z,101101.48
2023-01-29T01:13:40.000Z,101103.52
2023-01-29T01:16:14.569Z,101108.02
2023-01-29T01:18:46.909Z,101111.43
2023-01-29T01:21:19.277Z,101109.10
2023-01-29T01:23:52.059Z,101117.27
2023-01-29T01:26:24.454Z,101119.30
2023-01-29T01:28:56.793Z,101121.71
2023-01-29T01:31:29.196Z,101118.69
2023-01-29T01:34:01.612Z,101118.52
2023-01-29T01:36:33.980Z,101118.58
2023-01-29T01:39:06.873Z,101118.20
2023-01-29T01:41:39.288Z,101116.25
2023-01-29T01:44:42.265Z,101118.02
2023-01-29T01:47:15.752Z,101119.98
2023-01-29T01:49:48.632Z,101124.48
2023-01-29T01:52:22.328Z,101124.72
2023-01-29T01:54:55.058Z,101124.32
2023-01-29T01:57:29.945Z,101127.00
2023-01-29T02:00:10.979Z,101124.69
2023-01-29T02:03:03.679Z,101124.58
2023-01-29T02:05:55.759Z,101118.77
2023-01-29T02:08:50.619Z,101119.45
2023-01-29T02:11:23.286Z,101117.65
2023-01-29T02:13:56.172Z,101119.44
2023-01-29T02:16:28.437Z,101118.06
2023-01-29T02:19:00.994Z,101112.73
2023-01-29T02:21:53.978Z,101112.78
2023-01-29T02:24:52.957Z,101109.91
2023-01-29T02:27:35.010Z,101112.00
2023-01-29T02:30:13.057Z,101114.93
2023-01-29T02:32:58.756Z,101113.48
2023-01-29T02:35:37.553Z,101116.02
2023-01-29T02:38:19.195Z,101109.86
2023-01-29T02:40:57.107Z,101117.62
2023-01-29T02:43:40.562Z,101116.14
2023-01-29T02:46:19.422Z,101111.99
2023-01-29T02:48:59.137Z,101116.83
2023-01-29T02:51:40.213Z,101113.90
2023-01-29T02:54:21.775Z,101116.09
2023-01-29T02:56:59.088Z,101114.83
2023-01-29T02:59:38.356Z,101113.94
2023-01-29T03:02:16.985Z,101117.63
2023-01-29T03:04:56.157Z,101117.47
2023-01-29T03:07:46.658Z,101118.20
2023-01-29T03:10:22.609Z,101118.83
2023-01-29T03:12:59.798Z,101115.43
2023-01-29T03:15:39.394Z,101119.52
2023-01-29T03:18:14.398Z,101115.45
2023-01-29T03:20:53.813Z,101116.50
2023-01-29T03:23:48.018Z,101114.29
2023-01-29T03:26:40.399Z,101118.05
2023-01-29T03:29:33.140Z,101119.45
2023-01-29T03:32:06.402Z,101120.88
2023-01-29T03:34:46.379Z,101122.23
2023-01-29T03:37:23.301Z,101124.77
2023-01-29T03:39:55.728Z,101129.60
2023-01-29T03:42:36.602Z,101131.55
2023-01-29T03:45:17.502Z,101139.70
2023-01-29T03:47:57.283Z,101136.46
2023-01-29T03:50:39.597Z,101138.96
2023-01-29T03:53:22.493Z,101140.98
2023-01-29T03:56:02.361Z,101142.88
2023-01-29T03:58:40.504Z,101145.82
2023-01-29T04:01:21.400Z,101144.69
2023-01-29T04:03:59.672Z,101147.78
2023-01-29T04:06:35.217Z,101147.84
2023-01-29T04:09:13.504Z,101150.98
2023-01-29T04:11:50.887Z,101149.05
2023-01-29T04:14:23.525Z,101152.98
2023-01-29T04:16:59.157Z,101156.73
2023-01-29T04:19:31.639Z,101159.19
2023-01-29T04:22:08.605Z,101158.62
2023-01-29T04:24:41.858Z,101161.39
2023-01-29T04:27:28.733Z,101163.58
2023-01-29T04:30:14.947Z,101169.02
2023-01-29T04:32:53.888Z,101169.55
2023-01-29T04:35:33.227Z,101171.33
2023-01-29T04:38:13.986Z,101168.71
2023-01-29T04:40:58.462Z,101172.62
2023-01-29T04:43:36.474Z,101176.38
2023-01-29T04:46:17.646Z,101178.52
2023-01-29T04:49:05.187Z,101178.55
2023-01-29T04:51:50.220Z,101179.12
2023-01-29T04:54:30.075Z,101178.04
2023-01-29T04:57:10.861Z,101180.90
2023-01-29T04:59:48.158Z,101181.91
2023-01-29T05:02:24.239Z,101186.09
2023-01-29T05:04:58.856Z,101187.94
2023-01-29T05:07:32.597Z,101186.80
2023-01-29T05:10:06.829Z,101192.92
2023-01-29T05:12:40.917Z,101199.55
2023-01-29T05:15:17.523Z,101196.44
2023-01-29T05:17:49.989Z,101201.61
2023-01-29T05:20:22.801Z,101203.79
2023-01-29T05:22:55.086Z,101205.08
2023-01-29T05:25:29.930Z,101204.28
2023-01-29T05:28:05.487Z,101204.14
2023-01-29T05:30:39.668Z,101205.96
2023-01-29T05:33:16.992Z,101208.30
2023-01-29T05:35:50.141Z,101212.95
2023-01-29T05:38:23.080Z,101209.70
2023-01-29T05:40:55.484Z,101214.06
2023-01-29T05:43:28.376Z,101221.16
2023-01-29T05:46:02.960Z,101222.43
2023-01-29T05:48:35.290Z,101225.31
2023-01-29T05:51:08.338Z,101228.67
2023-01-29T05:53:40.681Z,101227.30
2023-01-29T05:56:13.025Z,101230.99
2023-01-29T05:58:45.296Z,101233.25
2023-01-29T06:01:20.202Z,101240.13
2023-01-29T06:03:52.505Z,101242.84
2023-01-29T06:06:25.369Z,101245.06
2023-01-29T06:08:58.592Z,101251.33
2023-01-29T06:11:30.894Z,101256.38
2023-01-29T06:14:03.177Z,101253.38
2023-01-29T06:16:35.658Z,101252.44
2023-01-29T06:19:07.876Z,101258.77
2023-01-29T06:21:40.088Z,101262.60
2023-01-29T06:24:13.103Z,101263.07
2023-01-29T06:26:45.397Z,101261.17
2023-01-29T06:29:17.666Z,101266.95
2023-01-29T06:31:50.083Z,101258.88
2023-01-29T06:34:22.829Z,101262.10
2023-01-29T06:36:55.350Z,101267.33
2023-01-29T06:39:27.677Z,101274.39
2023-01-29T06:41:59.981Z,101282.31
2023-01-29T06:44:32.275Z,101287.20
2023-01-29T06:47:04.607Z,101292.70
2023-01-29T06:49:36.895Z,101294.69
2023-01-29T06:52:09.389Z,101292.94
2023-01-29T06:54:41.746Z,101300.54
2023-01-29T06:57:14.242Z,101302.14
2023-01-29T06:59:46.484Z,101301.44
2023-01-29T07:02:19.445Z,101305.38
2023-01-29T07:04:51.873Z,101306.70
2023-01-29T07:07:24.205Z,101309.21
2023-01-29T07:09:56.437Z,101307.09
2023-01-29T07:12:28.760Z,101308.19
2023-01-29T07:15:01.224Z,101306.58
2023-01-29T07:17:33.637Z,101307.65
2023-01-29T07:20:07.113Z,101311.67
2023-01-29T07:22:39.466Z,101308.41
2023-01-29T07:25:12.881Z,101312.77
2023-01-29T07:27:45.217Z,101317.05
2023-01-29T07:30:19.122Z,101311.10
2023-01-29T07:32:51.581Z,101312.80
2023-01-29T07:35:23.899Z,101313.88
2023-01-29T07:37:56.238Z,101310.42
2023-01-29T07:40:28.701Z,101311.38
2023-01-29T07:43:05.583Z,101317.48
2023-01-29T07:45:39.825Z,101327.24
2023-01-29T07:48:14.259Z,101328.46
2023-01-29T07:50:46.534Z,101330.79
2023-01-29T07:53:18.909Z,101331.91
2023-01-29T07:55:51.182Z,101328.05
2023-01-29T07:58:23.449Z,101331.50
2023-01-29T08:00:55.749Z,101331.61
2023-01-29T08:03:28.037Z,101332.64
2023-01-29T08:06:00.630Z,101334.23
2023-01-29T08:08:33.239Z,101332.52
2023-01-29T08:11:06.807Z,101340.89
2023-01-29T08:13:39.173Z,101340.63
2023-01-29T08:16:11.766Z,101344.55
2023-01-29T08:18:48.517Z,101342.41
2023-01-29T08:21:20.864Z,101349.68
2023-01-29T08:23:53.293Z,101343.01
2023-01-29T08:26:26.432Z,101345.34
2023-01-29T08:28:58.762Z,101343.82
2023-01-29T08:31:31.200Z,101347.29
2023-01-29T08:34:03.649Z,101348.11
2023-01-29T08:36:36.143Z,101352.97
2023-01-29T08:39:08.528Z,101359.14
2023-01-29T08:41:40.837Z,101360.76
2023-01-29T08:44:13.274Z,101357.39
2023-01-29T08:46:45.505Z,101356.16
2023-01-29T08:49:17.882Z,101352.42
2023-01-29T08:51:51.666Z,101351.70
2023-01-29T08:54:24.001Z,101352.67
2023-01-29T08:56:56.509Z,101351.15
2023-01-29T08:59:29.232Z,101349.09
2023-01-29T09:02:01.643Z,101349.21
2023-01-29T09:04:34.136Z,101347.83
2023-01-29T09:07:06.687Z,101349.42
2023-01-29T09:09:39.373Z,101348.34
2023-01-29T09:12:11.729Z,101348.45
2023-01-29T09:14:44.044Z,101346.39
2023-01-29T09:17:16.324Z,101344.02
2023-01-29T09:19:48.787Z,101335.38
2023-01-29T09:22:21.331Z,101333.77
2023-01-29T09:24:53.592Z,101333.14
2023-01-29T09:27:25.844Z,101329.98
2023-01-29T09:29:58.268Z,101327.85
2023-01-29T09:32:52.810Z,101322.55
2023-01-29T09:35:23.286Z,101318.42
2023-01-29T09:37:55.709Z,101318.09
2023-01-29T09:40:34.754Z,101322.01
2023-01-29T09:43:14.701Z,101325.52
2023-01-29T09:45:52.649Z,101326.15
2023-01-29T09:48:28.813Z,101327.30
2023-01-29T09:51:06.634Z,101324.78
2023-01-29T09:53:45.947Z,101321.51
2023-01-29T09:56:21.680Z,101323.05
2023-01-29T09:58:54.262Z,101318.70
2023-01-29T10:01:34.184Z,101320.05
2023-01-29T10:04:30.450Z,101314.04
2023-01-29T10:07:20.170Z,101312.27
2023-01-29T10:10:05.612Z,101309.98
2023-01-29T10:12:53.262Z,101310.92
2023-01-29T10:15:40.203Z,101304.84
2023-01-29T10:18:45.605Z,101308.66
2023-01-29T10:21:35.950Z,101307.13
2023-01-29T10:24:22.060Z,101304.85
2023-01-29T10:26:54.703Z,101306.16
2023-01-29T10:29:28.848Z,101304.15
2023-01-29T10:32:06.150Z,101303.96
2023-01-29T10:34:43.357Z,101304.86
2023-01-29T10:37:19.811Z,101305.13
2023-01-29T10:39:52.634Z,101304.43
2023-01-29T10:42:32.573Z,101300.16
2023-01-29T10:45:22.651Z,101297.41
2023-01-29T10:48:10.852Z,101290.83
2023-01-29T10:50:52.805Z,101286.69
2023-01-29T10:53:50.451Z,101287.59
2023-01-29T10:56:35.632Z,101286.61
2023-01-29T10:59:23.369Z,101286.01
2023-01-29T11:02:00.861Z,101286.52
2023-01-29T11:04:35.475Z,101281.80
2023-01-29T11:07:07.998Z,101275.95
2023-01-29T11:09:45.281Z,101276.45
2023-01-29T11:12:22.626Z,101273.31
2023-01-29T11:15:00.965Z,101266.41
2023-01-29T11:17:33.529Z,101268.79
2023-01-29T11:20:26.649Z,101269.02
2023-01-29T11:22:59.478Z,101267.38
2023-01-29T11:25:33.250Z,101265.12
2023-01-29T11:28:07.309Z,101257.95
2023-01-29T11:30:42.612Z,101249.67
2023-01-29T11:33:20.047Z,101247.20
2023-01-29T11:35:52.886Z,101248.55
2023-01-29T11:38:27.726Z,101249.91
2023-01-29T11:41:09.013Z,101245.59
2023-01-29T11:43:41.381Z,101243.92
2023-01-29T11:46:18.403Z,101239.27
2023-01-29T11:49:02.437Z,101245.45
2023-01-29T11:51:40.631Z,101241.79
2023-01-29T11:54:21.006Z,101235.04
2023-01-29T11:56:53.478Z,101240.90
2023-01-29T11:59:38.459Z,101244.87
2023-01-29T12:02:26.764Z,101242.09
2023-01-29T12:05:04.053Z,101243.66
2023-01-29T12:07:42.368Z,101241.23
2023-01-29T12:10:35.722Z,101239.96
2023-01-29T12:13:26.895Z,101238.42
2023-01-29T12:16:19.415Z,101237.84
2023-01-29T12:18:57.629Z,101240.73
2023-01-29T12:21:36.750Z,101236.27
2023-01-29T12:24:20.861Z,101243.39
2023-01-29T12:26:59.485Z,101243.64
2023-01-29T12:29:39.101Z,101243.27
2023-01-29T12:32:21.437Z,101237.84
2023-01-29T12:35:00.423Z,101237.07
2023-01-29T12:37:40.540Z,101233.92
2023-01-29T12:40:20.258Z,101232.78
2023-01-29T12:42:56.579Z,101228.94
2023-01-29T12:45:30.562Z,101230.56
2023-01-29T12:48:07.729Z,101229.35
2023-01-29T12:50:41.126Z,101231.19
2023-01-29T12:53:26.926Z,101230.67
2023-01-29T12:56:03.989Z,101232.71
2023-01-29T12:58:42.309Z,101237.24
2023-01-29T13:01:18.619Z,101240.71
2023-01-29T13:03:56.752Z,101244.11
2023-01-29T13:06:34.893Z,101245.50
2023-01-29T13:09:13.255Z,101247.62
2023-01-29T13:11:51.630Z,101247.52
2023-01-29T13:14:28.903Z,101247.48
2023-01-29T13:17:11.493Z,101242.20
2023-01-29T13:19:48.053Z,101241.75
2023-01-29T13:22:24.696Z,101245.09
2023-01-29T13:25:04.659Z,101246.02
2023-01-29T13:27:38.683Z,101246.06
2023-01-29T13:30:28.415Z,101248.34
2023-01-29T13:33:11.387Z,101241.30
2023-01-29T13:35:47.122Z,101242.98
2023-01-29T13:38:29.661Z,101243.52
2023-01-29T13:41:05.733Z,101241.82
2023-01-29T13:43:38.023Z,101243.67
2023-01-29T13:46:14.298Z,101243.60
2023-01-29T13:48:49.407Z,101245.20
2023-01-29T13:51:24.428Z,101245.30
2023-01-29T13:54:01.886Z,101247.33
2023-01-29T13:56:51.030Z,101252.05
2023-01-29T13:59:47.194Z,101253.89
2023-01-29T14:02:28.828Z,101253.08
2023-01-29T14:05:41.087Z,101255.71
2023-01-29T14:08:40.278Z,101258.41
2023-01-29T14:11:39.005Z,101253.20
2023-01-29T14:14:40.873Z,101257.02
2023-01-29T14:17:13.359Z,101258.45
2023-01-29T14:19:52.763Z,101256.80
2023-01-29T14:22:27.894Z,101256.89
2023-01-29T14:25:04.560Z,101251.36
2023-01-29T14:27:38.435Z,101251.15
2023-01-29T14:30:18.275Z,101249.90
2023-01-29T14:32:52.751Z,101252.04
2023-01-29T14:35:27.288Z,101251.80
2023-01-29T14:38:03.989Z,101252.04
2023-01-29T14:40:37.520Z,101253.98
2023-01-29T14:43:20.201Z,101252.30
2023-01-29T14:45:52.801Z,101252.84
2023-01-29T14:48:39.435Z,101249.77
2023-01-29T14:51:15.381Z,101246.70
2023-01-29T14:53:49.841Z,101248.62
2023-01-29T14:56:27.754Z,101248.06
2023-01-29T14:59:14.226Z,101245.76
2023-01-29T15:01:53.766Z,101249.36
2023-01-29T15:04:30.653Z,101247.89
2023-01-29T15:07:12.572Z,101248.77
2023-01-29T15:09:48.321Z,101246.33
2023-01-29T15:12:31.248Z,101247.80
2023-01-29T15:15:17.239Z,101247.73
2023-01-29T15:17:59.502Z,101249.43
2023-01-29T15:20:35.173Z,101249.12
2023-01-29T15:23:33.547Z,101252.73
2023-01-29T15:26:08.692Z,101252.08
2023-01-29T15:28:43.497Z,101253.89
2023-01-29T15:31:19.747Z,101259.24
2023-01-29T15:33:56.240Z,101263.34
2023-01-29T15:36:32.940Z,101263.56
2023-01-29T15:39:18.936Z,101265.19
2023-01-29T15:41:52.656Z,101265.67
2023-01-29T15:44:25.882Z,101273.80
2023-01-29T15:47:02.111Z,101275.61
2023-01-29T15:49:34.476Z,101273.55
2023-01-29T15:52:10.013Z,101278.80
2023-01-29T15:54:42.561Z,101289.05
2023-01-29T15:57:23.822Z,101290.42
2023-01-29T15:59:59.195Z,101293.31
2023-01-29T16:02:40.767Z,101295.61
2023-01-29T16:05:19.041Z,101291.77
2023-01-29T16:07:52.492Z,101289.77
2023-01-29T16:10:27.851Z,101287.20
2023-01-29T16:13:01.471Z,101288.84
2023-01-29T16:15:40.327Z,101288.14
2023-01-29T16:18:25.459Z,101293.86
2023-01-29T16:21:01.857Z,101300.55
2023-01-29T16:23:41.791Z,101304.71
2023-01-29T16:26:19.495Z,101304.60
2023-01-29T16:28:51.862Z,101308.98
2023-01-29T16:31:30.360Z,101310.20
2023-01-29T16:34:10.355Z,101306.86
2023-01-29T16:36:49.400Z,101310.52
2023-01-29T16:39:24.370Z,101303.44
2023-01-29T16:42:23.957Z,101308.96
2023-01-29T16:45:02.181Z,101309.70
2023-01-29T16:47:37.438Z,101311.15
2023-01-29T16:50:36.194Z,101311.67
2023-01-29T16:53:22.024Z,101311.47
2023-01-29T16:55:55.231Z,101314.04
2023-01-29T16:58:30.436Z,101309.23
2023-01-29T17:01:08.393Z,101308.23
2023-01-29T17:03:42.392Z,101310.67
2023-01-29T17:06:22.540Z,101305.95
2023-01-29T17:08:55.691Z,101306.42
2023-01-29T17:11:33.147Z,101305.50
2023-01-29T17:14:06.352Z,101306.11
2023-01-29T17:16:50.221Z,101307.47
2023-01-29T17:19:25.352Z,101303.64
2023-01-29T17:21:59.117Z,101301.23
2023-01-29T17:24:31.753Z,101299.45
2023-01-29T17:27:05.249Z,101298.00
2023-01-29T17:29:38.298Z,101301.15
2023-01-29T17:32:12.368Z,101296.45
2023-01-29T17:34:44.738Z,101301.00
2023-01-29T17:37:18.500Z,101296.27
2023-01-29T17:39:52.843Z,101295.05
2023-01-29T17:42:25.420Z,101292.80
2023-01-29T17:44:57.627Z,101292.45
2023-01-29T17:47:30.619Z,101295.55
2023-01-29T17:50:03.087Z,101294.14
2023-01-29T17:52:35.485Z,101298.61
2023-01-29T17:55:09.778Z,101300.38
2023-01-29T17:57:42.207Z,101299.13
2023-01-29T18:00:21.809Z,101296.88
2023-01-29T18:02:54.487Z,101296.27
2023-01-29T18:05:26.912Z,101295.36
2023-01-29T18:07:59.218Z,101296.02
2023-01-29T18:10:31.820Z,101296.20
2023-01-29T18:13:04.103Z,101298.98
2023-01-29T18:15:36.459Z,101299.74
2023-01-29T18:18:13.413Z,101301.73
2023-01-29T18:20:45.720Z,101297.75
2023-01-29T18:23:18.010Z,101298.16
2023-01-29T18:25:50.293Z,101303.32
2023-01-29T18:28:22.620Z,101301.61
2023-01-29T18:30:55.319Z,101302.70
2023-01-29T18:33:27.691Z,101305.53
2023-01-29T18:36:00.902Z,101306.59
2023-01-29T18:38:34.517Z,101307.29
2023-01-29T18:41:10.714Z,101305.86
2023-01-29T18:43:44.357Z,101304.80
2023-01-29T18:46:16.752Z,101307.10
2023-01-29T18:48:49.220Z,101301.58
2023-01-29T18:51:21.527Z,101306.94
2023-01-29T18:53:54.439Z,101305.04
2023-01-29T18:56:26.824Z,101302.66
2023-01-29T18:58:59.490Z,101306.24
2023-01-29T19:01:32.585Z,101298.66
2023-01-29T19:04:04.838Z,101295.73
2023-01-29T19:06:38.069Z,101299.14
2023-01-29T19:09:10.460Z,101298.55
2023-01-29T19:11:42.778Z,101294.99
2023-01-29T19:14:15.137Z,101297.23
2023-01-29T19:16:47.533Z,101290.77
2023-01-29T19:19:22.687Z,101292.64
2023-01-29T19:21:56.198Z,101292.57
2023-01-29T19:24:28.741Z,101293.65
2023-01-29T19:27:02.165Z,101290.02
2023-01-29T19:29:34.835Z,101293.73
2023-01-29T19:32:10.166Z,101294.23
2023-01-29T19:34:42.474Z,101298.47
2023-01-29T19:37:14.649Z,101297.62
2023-01-29T19:39:46.996Z,101297.65
2023-01-29T19:42:20.450Z,101295.65
2023-01-29T19:44:53.532Z,101303.47
2023-01-29T19:47:25.720Z,101310.38
2023-01-29T19:49:57.949Z,101313.52
2023-01-29T19:52:50.778Z,101314.89
2023-01-29T19:55:23.821Z,101315.90
2023-01-29T19:57:58.137Z,101311.42
2023-01-29T20:00:30.570Z,101309.89
2023-01-29T20:03:02.835Z,101311.02
2023-01-29T20:05:38.661Z,101303.19
2023-01-29T20:08:10.863Z,101307.34
2023-01-29T20:10:46.073Z,101309.89
2023-01-29T20:13:18.738Z,101305.54
2023-01-29T20:15:52.345Z,101306.65
2023-01-29T20:18:24.813Z,101298.88
2023-01-29T20:20:57.146Z,101301.91
2023-01-29T20:23:37.652Z,101304.09
2023-01-29T20:26:13.652Z,101300.36
2023-01-29T20:28:46.714Z,101304.84
2023-01-29T20:31:19.441Z,101310.44
2023-01-29T20:33:52.531Z,101308.97
2023-01-29T20:36:25.056Z,101312.95
2023-01-29T20:38:57.484Z,101312.66
2023-01-29T20:41:30.063Z,101315.02
2023-01-29T20:44:02.325Z,101316.80
2023-01-29T20:46:35.428Z,101315.77
2023-01-29T20:49:08.142Z,101311.75
2023-01-29T20:51:40.357Z,101312.23
2023-01-29T20:54:12.910Z,101312.83
2023-01-29T20:56:45.679Z,101315.11
2023-01-29T20:59:20.502Z,101319.36
2023-01-29T21:01:53.436Z,101319.82
2023-01-29T21:04:27.247Z,101327.45
2023-01-29T21:06:59.617Z,101329.17
2023-01-29T21:09:31.947Z,101326.02
2023-01-29T21:12:05.495Z,101332.92
2023-01-29T21:14:37.798Z,101336.41
2023-01-29T21:17:10.038Z,101335.55
2023-01-29T21:19:43.277Z,101338.55
2023-01-29T21:22:15.469Z,101337.05
2023-01-29T21:24:50.422Z,101341.84
2023-01-29T21:27:22.973Z,101341.23
2023-01-29T21:29:55.290Z,101339.64
2023-01-29T21:32:28.387Z,101343.75
2023-01-29T21:35:00.715Z,101341.16
2023-01-29T21:37:36.963Z,101337.61
2023-01-29T21:40:11.485Z,101339.27
2023-01-29T21:43:01.608Z,101340.26
2023-01-29T21:45:35.688Z,101342.66
2023-01-29T21:48:09.003Z,101341.39
2023-01-29T21:50:44.252Z,101338.95
2023-01-29T21:53:18.095Z,101332.28
2023-01-29T21:55:50.657Z,101333.38
2023-01-29T21:58:24.923Z,101329.84
2023-01-29T22:00:57.449Z,101327.23
2023-01-29T22:03:49.640Z,101332.01
2023-01-29T22:06:22.382Z,101329.27
2023-01-29T22:08:54.776Z,101328.92
2023-01-29T22:11:27.556Z,101327.49
2023-01-29T22:13:59.846Z,101325.54
2023-01-29T22:16:32.092Z,101328.09
2023-01-29T22:19:04.445Z,101327.89
2023-01-29T22:21:37.142Z,101330.98
2023-01-29T22:24:10.023Z,101322.90
2023-01-29T22:26:42.469Z,101320.02
2023-01-29T22:29:17.273Z,101318.30
2023-01-29T22:31:49.660Z,101315.70
2023-01-29T22:34:21.971Z,101316.27
2023-01-29T22:36:54.476Z,101314.90
2023-01-29T22:39:26.823Z,101310.17
2023-01-29T22:42:00.756Z,101308.61
2023-01-29T22:44:33.116Z,101309.36
2023-01-29T22:47:05.400Z,101300.74
2023-01-29T22:49:37.791Z,101304.02
2023-01-29T22:52:13.886Z,101303.45
2023-01-29T22:54:44.947Z,101304.13
2023-01-29T22:57:18.014Z,101304.84
2023-01-29T22:59:50.413Z,101304.95
2023-01-29T23:02:22.775Z,101304.69
2023-01-29T23:04:55.156Z,101305.69
2023-01-29T23:07:27.565Z,101306.10
2023-01-29T23:09:59.898Z,101302.83
2023-01-29T23:12:32.279Z,101304.77
2023-01-29T23:15:04.832Z,101301.31
2023-01-29T23:17:37.103Z,101300.81
2023-01-29T23:20:12.053Z,101298.27
2023-01-29T23:22:44.459Z,101297.46
2023-01-29T23:25:17.202Z,101296.92
2023-01-29T23:27:49.573Z,101294.56
2023-01-29T23:30:22.093Z,101294.84
2023-01-29T23:32:54.636Z,101293.05
2023-01-29T23:35:26.892Z,101293.77
2023-01-29T23:37:59.237Z,101292.29
2023-01-29T23:40:31.587Z,101292.94
2023-01-29T23:43:04.032Z,101291.21
2023-01-29T23:45:36.371Z,101284.00
2023-01-29T23:48:09.378Z,101281.52
2023-01-29T23:50:41.622Z,101284.09
2023-01-29T23:53:14.426Z,101287.15
2023-01-29T23:55:56.290Z,101287.21
2023-01-29T23:58:29.407Z,101283.54
